Data for 11/29/2012

Time Sea-Level Adjusted Pressure Absolute Pressure Temperature Relative Humidity Dew Point   
(mb) (inHg) (mb) (inHg) (C) (F) (%) (C) (F)
00:05 1013 29.91 843 24.89 5.1 41.2 39 -7.6 18.3
00:10 1013 29.91 843 24.89 5.2 41.4 39 -7.5 18.5
00:15 1013 29.91 843 24.89 5.1 41.2 40 -7.3 18.9
00:20 1013 29.91 843 24.89 5.1 41.1 38 -8.1 17.5
00:25 1013 29.91 843 24.89 5.3 41.6 41 -7 19.3
00:30 1013 29.91 843 24.89 4.9 40.8 41 -7.2 19
00:35 1013 29.91 843 24.89 4.8 40.7 40 -7.5 18.4
00:40 1013 29.91 843 24.89 4.8 40.7 41 -7.2 19.1
00:45 1013 29.91 843 24.89 5 41 42 -6.7 19.9
00:50 1013 29.91 843 24.89 4.6 40.2 43 -7.1 19.3
00:55 1013 29.91 843 24.89 4.8 40.6 40 -7.6 18.3
01:00 1014 29.94 843 24.89 5.2 41.3 40 -7.3 18.8
01:05 1014 29.94 843 24.89 5.4 41.7 39 -7.5 18.5
01:10 1014 29.94 843 24.89 5.5 41.8 39 -7.4 18.7
01:15 1014 29.94 843 24.89 5.3 41.6 40 -7.1 19.2
01:20 1014 29.94 843 24.89 5.2 41.3 41 -7 19.3
01:25 1014 29.94 843 24.89 5.1 41.2 40 -7.3 18.9
01:30 1014 29.94 843 24.89 5.3 41.5 41 -6.8 19.7
01:35 1014 29.94 843 24.89 5.1 41.2 42 -6.6 20
01:40 1014 29.94 843 24.89 5.6 42 41 -6.6 20.1
01:45 1014 29.94 843 24.89 6 42.7 40 -6.6 20.1
01:50 1014 29.94 843 24.89 5.9 42.7 41 -6.3 20.7
01:55 1014 29.94 843 24.89 5.3 41.5 44 -5.9 21.4
02:00 1014 29.94 843 24.89 4.2 39.6 49 -5.6 21.9
02:05 1014 29.94 843 24.89 4 39.2 43 -7.5 18.4
02:10 1014 29.94 843 24.89 4.5 40 45 -6.4 20.5
02:15 1014 29.94 844 24.92 4.2 39.5 49 -5.7 21.8
02:20 1014 29.94 843 24.89 3.8 38.8 49 -5.9 21.3
02:25 1014 29.94 843 24.89 3.5 38.2 51 -5.7 21.7
02:30 1014 29.94 843 24.89 3.3 38 53 -5.3 22.5
02:35 1014 29.94 843 24.89 3.3 37.9 55 -4.9 23.2
02:40 1014 29.94 843 24.89 3.5 38.3 55 -4.6 23.7
02:45 1014 29.94 843 24.89 3.9 39 56 -4 24.7
02:50 1014 29.94 843 24.89 4 39.2 60 -3 26.5
02:55 1014 29.94 843 24.89 4 39.1 63 -2.5 27.5
03:00 1014 29.94 843 24.89 3.9 39.1 66 -1.9 28.6
03:05 1014 29.94 843 24.89 3.9 38.9 69 -1.4 29.5
03:10 1014 29.94 843 24.89 3.9 39.1 70 -1.1 30
03:15 1014 29.94 843 24.89 3.9 39.1 72 -0.8 30.6
03:20 1014 29.94 843 24.89 3.9 39 73 -0.5 31.1
03:25 1014 29.94 844 24.92 3.8 38.9 74 -0.4 31.2
03:30 1014 29.94 844 24.92 3.9 39 74 -0.3 31.5
03:35 1014 29.94 844 24.92 4 39.3 74 -0.2 31.6
03:40 1014 29.94 844 24.92 4.1 39.4 74 -0.2 31.6
03:45 1014 29.94 844 24.92 4.1 39.4 74 -0.2 31.7
03:50 1015 29.97 844 24.92 4.1 39.4 74 -0.1 31.7
03:55 1014 29.94 844 24.92 4.1 39.3 74 -0.2 31.6
04:00 1014 29.94 844 24.92 3.6 38.5 74 -0.6 30.9
04:05 1014 29.94 844 24.92 3.3 38 75 -0.8 30.6
04:10 1014 29.94 844 24.92 3.4 38 74 -0.9 30.4
04:15 1014 29.94 843 24.89 3.3 38 73 -1 30.2
04:20 1014 29.94 844 24.92 3.2 37.8 74 -1 30.2
04:25 1014 29.94 844 24.92 3.3 37.9 73 -1 30.1
04:30 1014 29.94 844 24.92 3.1 37.5 73 -1.2 29.8
04:35 1014 29.94 843 24.89 3.2 37.7 73 -1.1 30
04:40 1014 29.94 843 24.89 3.4 38.1 73 -1.1 30.1
04:45 1014 29.94 843 24.89 3.4 38.1 72 -1.2 29.8
04:50 1014 29.94 843 24.89 3.6 38.4 72 -1 30.2
04:55 1014 29.94 843 24.89 3.4 38.1 73 -1 30.1
05:00 1014 29.94 843 24.89 3.3 37.9 73 -1.1 30
05:05 1014 29.94 843 24.89 3.3 37.9 72 -1.2 29.9
05:10 1014 29.94 843 24.89 3.3 37.9 73 -1.1 30
05:15 1014 29.94 843 24.89 3.2 37.7 74 -1 30.2
05:20 1014 29.94 843 24.89 3.1 37.6 74 -1.1 30
05:25 1014 29.94 843 24.89 3.3 38 75 -0.6 30.8
05:30 1014 29.94 843 24.89 3.2 37.7 75 -0.8 30.6
05:35 1014 29.94 843 24.89 3.3 37.9 75 -0.6 30.9
05:40 1014 29.94 843 24.89 3.1 37.5 76 -0.8 30.5
05:45 1014 29.94 843 24.89 3.1 37.6 76 -0.7 30.7
05:50 1014 29.94 843 24.89 3 37.4 76 -0.8 30.6
05:55 1014 29.94 843 24.89 2.5 36.6 76 -1.3 29.7
06:00 1014 29.94 843 24.89 2.4 36.4 78 -1 30.2
06:05 1014 29.94 843 24.89 2.6 36.7 76 -1.2 29.8
06:10 1014 29.94 843 24.89 2.5 36.5 78 -1 30.2
06:15 1014 29.94 843 24.89 2.4 36.4 76 -1.4 29.5
06:20 1014 29.94 843 24.89 2.2 36 77 -1.4 29.5
06:25 1014 29.94 843 24.89 2.1 35.8 77 -1.5 29.4
06:30 1014 29.94 843 24.89 2.1 35.8 77 -1.4 29.4
06:35 1014 29.94 844 24.92 2.1 35.8 77 -1.6 29.2
06:40 1014 29.94 844 24.92 2.1 35.8 77 -1.5 29.2
06:45 1014 29.94 844 24.92 2.2 36 76 -1.6 29.1
06:50 1014 29.94 844 24.92 2.3 36.2 75 -1.6 29.1
06:55 1014 29.94 844 24.92 2.5 36.5 74 -1.6 29
07:00 1014 29.94 844 24.92 2.6 36.7 74 -1.6 29.1
07:05 1014 29.94 844 24.92 2.5 36.4 75 -1.5 29.2
07:10 1014 29.94 844 24.92 2.4 36.3 75 -1.5 29.3
07:15 1014 29.94 844 24.92 2.5 36.4 75 -1.5 29.4
07:20 1014 29.94 844 24.92 2.5 36.6 76 -1.3 29.6
07:25 1014 29.94 844 24.92 2.5 36.6 76 -1.2 29.9
07:30 1014 29.94 844 24.92 2.8 37.1 74 -1.3 29.7
07:35 1015 29.97 844 24.92 2.7 36.9 75 -1.2 29.8
07:40 1015 29.97 844 24.92 2.7 36.8 77 -1 30.2
07:45 1015 29.97 844 24.92 2.8 37 75 -1.1 30
07:50 1015 29.97 844 24.92 2.9 37.2 75 -1.1 30
07:55 1015 29.97 844 24.92 3.1 37.5 73 -1.2 29.8
08:00 1015 29.97 844 24.92 3.2 37.7 72 -1.3 29.6
08:05 1015 29.97 844 24.92 3.6 38.4 71 -1.2 29.8
08:10 1015 29.97 844 24.92 3.4 38 73 -1.1 30
08:15 1015 29.97 844 24.92 3.6 38.5 69 -1.6 29.1
08:20 1015 29.97 844 24.92 3.8 38.9 71 -1 30.2
08:25 1015 29.97 844 24.92 3.6 38.4 72 -1 30.3
08:30 1015 29.97 844 24.92 3.5 38.3 72 -1 30.1
08:35 1015 29.97 844 24.92 3.5 38.3 70 -1.4 29.5
08:40 1015 29.97 844 24.92 3.6 38.4 72 -1 30.3
08:45 1015 29.97 844 24.92 3.5 38.3 71 -1.2 29.8
08:50 1015 29.97 844 24.92 3.9 39 69 -1.2 29.8
08:55 1015 29.97 844 24.92 3.9 39 71 -1 30.2
09:00 1015 29.97 844 24.92 3.7 38.7 72 -1 30.3
09:05 1015 29.97 844 24.92 3.4 38.1 73 -1.1 30.1
09:10 1015 29.97 844 24.92 3.4 38.1 72 -1.1 30
09:15 1015 29.97 844 24.92 3.8 38.9 69 -1.4 29.5
09:20 1015 29.97 844 24.92 4.3 39.7 69 -0.9 30.4
09:25 1015 29.97 845 24.95 4.4 40 67 -1.1 30.1
09:30 1015 29.97 844 24.92 4.6 40.3 67 -1 30.3
09:35 1015 29.97 844 24.92 4.8 40.6 66 -1.1 30
09:40 1015 29.97 844 24.92 5.2 41.3 64 -1 30.2
09:45 1015 29.97 845 24.95 5.7 42.2 63 -0.9 30.5
09:50 1015 29.97 845 24.95 5.6 42 63 -0.8 30.5
09:55 1015 29.97 845 24.95 6 42.9 60 -1 30.1
10:00 1015 29.97 845 24.95 6.6 43.9 59 -0.8 30.5
10:05 1015 29.97 845 24.95 7 44.7 57 -0.9 30.3
10:10 1015 29.97 845 24.95 7.4 45.4 56 -0.7 30.7
10:15 1015 29.97 845 24.95 7.6 45.6 56 -0.6 30.8
10:20 1015 29.97 845 24.95 7.6 45.6 57 -0.5 31.1
10:25 1015 29.97 845 24.95 6.9 44.3 59 -0.5 31.1
10:30 1015 29.97 845 24.95 6.7 44.1 59 -0.7 30.8
10:35 1015 29.97 845 24.95 6.7 44.1 60 -0.6 30.9
10:40 1015 29.97 845 24.95 7.3 45.2 56 -0.8 30.5
10:45 1015 29.97 844 24.92 7.6 45.7 56 -0.6 31
10:50 1015 29.97 845 24.95 7.6 45.7 55 -0.7 30.7
10:55 1015 29.97 845 24.95 7.6 45.6 56 -0.6 30.9
11:00 1015 29.97 845 24.95 7.6 45.6 54 -1.2 29.9
11:05 1015 29.97 845 24.95 8.5 47.2 50 -1.2 29.8
11:10 1015 29.97 845 24.95 9 48.3 48 -1.4 29.5
11:15 1016 30 845 24.95 9.3 48.7 49 -0.9 30.3
11:20 1016 30 845 24.95 8.8 47.9 48 -1.4 29.4
11:25 1016 30 845 24.95 9.2 48.6 46 -1.7 29
11:30 1016 30 845 24.95 9.1 48.3 48 -1.2 29.8
11:35 1016 30 845 24.95 8.5 47.3 49 -1.6 29
11:40 1016 30 845 24.95 9.1 48.3 46 -1.8 28.7
11:45 1016 30 845 24.95 9.8 49.6 44 -2 28.5
11:50 1016 30 845 24.95 10.2 50.4 42 -2 28.4
11:55 1016 30 845 24.95 10.4 50.7 43 -1.6 29.1
12:00 1016 30 845 24.95 9.6 49.4 45 -1.6 29.1
12:05 1016 30 845 24.95 10 50 43 -1.9 28.5
12:10 1016 30 845 24.95 10.3 50.6 43 -1.8 28.8
12:15 1016 30 845 24.95 10.4 50.7 43 -1.7 29
12:20 1016 30 845 24.95 10.3 50.6 41 -2.2 28
12:25 1016 30 845 24.95 10.2 50.4 44 -1.4 29.4
12:30 1016 30 845 24.95 10.2 50.4 43 -1.8 28.7
12:35 1016 30 845 24.95 10.6 51.1 40 -2.4 27.8
12:40 1016 30 845 24.95 10.4 50.7 41 -2.2 28.1
12:45 1016 30 845 24.95 9.8 49.7 44 -1.9 28.5
12:50 1015 29.97 845 24.95 9.9 49.9 42 -2.2 28
12:55 1015 29.97 845 24.95 10 49.9 43 -2 28.5
13:00 1015 29.97 844 24.92 9.3 48.7 48 -1.3 29.7
13:05 1015 29.97 844 24.92 8.4 47.1 49 -1.8 28.7
13:10 1015 29.97 844 24.92 8.2 46.8 49 -1.7 28.9
13:15 1015 29.97 844 24.92 8 46.4 49 -1.9 28.5
13:20 1015 29.97 844 24.92 7.9 46.3 50 -1.9 28.5
13:25 1015 29.97 844 24.92 8 46.4 49 -2.1 28.3
13:30 1015 29.97 844 24.92 8 46.4 49 -2 28.4
13:35 1015 29.97 844 24.92 8 46.4 49 -2.1 28.1
13:40 1015 29.97 844 24.92 8 46.4 48 -2.2 28
13:45 1015 29.97 844 24.92 8.7 47.6 45 -2.6 27.3
13:50 1014 29.94 844 24.92 8.7 47.6 47 -2.1 28.2
13:55 1014 29.94 844 24.92 8.9 47.9 44 -2.7 27.1
14:00 1014 29.94 843 24.89 9 48.1 44 -2.5 27.6
14:05 1014 29.94 843 24.89 8.9 48 44 -2.7 27.2
14:10 1014 29.94 843 24.89 8.9 48.1 43 -2.9 26.7
14:15 1014 29.94 843 24.89 9.1 48.4 43 -2.7 27.1
14:20 1014 29.94 843 24.89 9.5 49.2 42 -2.6 27.3
14:25 1014 29.94 843 24.89 10.3 50.5 38 -3.3 26
14:30 1014 29.94 843 24.89 10.1 50.1 41 -2.7 27.2
14:35 1014 29.94 843 24.89 10.3 50.5 40 -2.8 27
14:40 1014 29.94 843 24.89 11.2 52.2 37 -2.9 26.7
14:45 1014 29.94 843 24.89 11.2 52.2 38 -2.5 27.4
14:50 1014 29.94 843 24.89 11.5 52.7 38 -2.1 28.2
14:55 1014 29.94 843 24.89 11.9 53.5 33 -3.8 25.1
15:00 1014 29.94 843 24.89 12.2 54 33 -3.4 26
15:05 1014 29.94 843 24.89 12.9 55.3 32 -3.3 26.1
15:10 1014 29.94 843 24.89 13 55.3 33 -2.8 27
15:15 1014 29.94 843 24.89 12.7 54.8 35 -2.4 27.8
15:20 1014 29.94 843 24.89 11.7 53.1 34 -3.7 25.4
15:25 1014 29.94 843 24.89 11.6 52.9 31 -4.8 23.4
15:30 1014 29.94 843 24.89 11.9 53.4 31 -4.5 23.9
15:35 1014 29.94 843 24.89 12.2 54 33 -3.3 26
15:40 1014 29.94 843 24.89 11.7 53 38 -2.3 27.9
15:45 1014 29.94 843 24.89 11.6 52.8 37 -2.7 27.1
15:50 1014 29.94 843 24.89 11 51.8 39 -2.5 27.5
15:55 1014 29.94 843 24.89 10.4 50.7 40 -2.6 27.3
16:00 1014 29.94 843 24.89 10 49.9 39 -3.2 26.2
16:05 1014 29.94 843 24.89 9.9 49.8 40 -3.2 26.3
16:10 1014 29.94 843 24.89 10.2 50.3 39 -3.3 26.1
16:15 1014 29.94 843 24.89 10.3 50.5 39 -2.9 26.8
16:20 1014 29.94 843 24.89 10.2 50.4 39 -3 26.6
16:25 1014 29.94 843 24.89 9.8 49.7 41 -2.8 26.9
16:30 1014 29.94 843 24.89 10 50 40 -2.9 26.7
16:35 1014 29.94 843 24.89 9.8 49.6 43 -2.2 28.1
16:40 1014 29.94 843 24.89 9.6 49.3 42 -2.6 27.4
16:45 1014 29.94 843 24.89 9.5 49.1 43 -2.5 27.5
16:50 1014 29.94 844 24.92 9.4 48.9 42 -2.7 27.1
16:55 1014 29.94 843 24.89 9.3 48.8 43 -2.7 27.1
17:00 1014 29.94 844 24.92 9.1 48.4 42 -3 26.7
17:05 1014 29.94 844 24.92 9 48.2 41 -3.4 25.9
17:10 1014 29.94 844 24.92 9 48.2 39 -4.3 24.3
17:15 1014 29.94 844 24.92 9 48.2 39 -4.3 24.3
17:20 1014 29.94 843 24.89 8.9 48 38 -4.6 23.6
17:25 1014 29.94 844 24.92 8.7 47.6 36 -5.4 22.3
17:30 1014 29.94 843 24.89 8.2 46.8 36 -6.1 21.1
17:35 1014 29.94 843 24.89 8.1 46.6 37 -5.7 21.8
17:40 1014 29.94 843 24.89 7.6 45.7 38 -5.9 21.4
17:45 1014 29.94 844 24.92 7.6 45.6 37 -6.1 21
17:50 1015 29.97 844 24.92 7.6 45.7 38 -5.9 21.3
17:55 1015 29.97 844 24.92 7.8 46 36 -6.3 20.6
18:00 1015 29.97 844 24.92 7.9 46.2 36 -6.2 20.9
18:05 1015 29.97 844 24.92 8 46.5 35 -6.3 20.6
18:10 1015 29.97 844 24.92 8 46.4 38 -5.5 22.1
18:15 1015 29.97 844 24.92 7.8 46 39 -5.3 22.4
18:20 1015 29.97 844 24.92 7.4 45.3 40 -5.4 22.2
18:25 1015 29.97 844 24.92 7.3 45.1 40 -5.6 22
18:30 1014 29.94 844 24.92 7.7 45.9 37 -5.9 21.3
18:35 1014 29.94 844 24.92 7.8 46 40 -5 23
18:40 1015 29.97 844 24.92 7.1 44.8 42 -4.9 23.2
18:45 1015 29.97 844 24.92 7.3 45.1 38 -6.1 21.1
18:50 1015 29.97 844 24.92 7.7 45.8 39 -5.2 22.6
18:55 1015 29.97 844 24.92 7.5 45.4 39 -5.6 21.8
19:00 1015 29.97 844 24.92 7.5 45.5 39 -5.5 22.1
19:05 1015 29.97 844 24.92 7.4 45.3 42 -4.6 23.7
19:10 1015 29.97 844 24.92 7 44.6 42 -5.1 22.9
19:15 1015 29.97 844 24.92 7.1 44.7 44 -4.4 24.1
19:20 1015 29.97 844 24.92 6.9 44.4 43 -4.9 23.2
19:25 1014 29.94 844 24.92 7.2 44.9 42 -5 23
19:30 1014 29.94 843 24.89 7.7 45.9 40 -5.2 22.7
19:35 1014 29.94 843 24.89 8 46.4 38 -5.3 22.5
19:40 1014 29.94 843 24.89 8.3 46.9 40 -4.4 24.1
19:45 1014 29.94 843 24.89 8 46.4 41 -4.6 23.8
19:50 1014 29.94 844 24.92 8 46.4 42 -4 24.8
19:55 1014 29.94 844 24.92 7.8 46 42 -4.2 24.5
20:00 1014 29.94 844 24.92 7.6 45.7 43 -4.1 24.7
20:05 1014 29.94 844 24.92 7.5 45.4 43 -4.1 24.5
20:10 1015 29.97 844 24.92 7.2 45 45 -3.9 25
20:15 1015 29.97 844 24.92 7.4 45.3 44 -4.2 24.5
20:20 1015 29.97 844 24.92 7.4 45.3 44 -4.1 24.6
20:25 1015 29.97 844 24.92 7.7 45.9 42 -4.3 24.3
20:30 1015 29.97 844 24.92 8 46.5 42 -4.2 24.5
20:35 1015 29.97 844 24.92 8 46.3 42 -4 24.8
20:40 1015 29.97 844 24.92 7.9 46.2 42 -4.2 24.5
20:45 1015 29.97 844 24.92 7.8 46.1 43 -3.9 24.9
20:50 1015 29.97 844 24.92 7.7 45.8 43 -4 24.7
20:55 1015 29.97 844 24.92 7.7 45.8 44 -3.9 24.9
21:00 1015 29.97 844 24.92 7.5 45.4 45 -3.7 25.4
21:05 1014 29.94 844 24.92 7.2 44.9 47 -3.5 25.7
21:10 1014 29.94 844 24.92 7 44.6 47 -3.6 25.6
21:15 1014 29.94 844 24.92 7.2 45 45 -3.7 25.3
21:20 1014 29.94 844 24.92 7.5 45.4 44 -4 24.8
21:25 1014 29.94 844 24.92 7.3 45.1 44 -4.1 24.6
21:30 1014 29.94 844 24.92 7.2 45 43 -4.6 23.8
21:35 1014 29.94 843 24.89 7.2 44.9 43 -4.7 23.6
21:40 1014 29.94 844 24.92 7.1 44.8 43 -4.6 23.8
21:45 1014 29.94 844 24.92 7.1 44.7 43 -4.6 23.7
21:50 1014 29.94 843 24.89 7 44.5 44 -4.5 24
21:55 1014 29.94 843 24.89 7 44.7 43 -4.6 23.7
22:00 1014 29.94 843 24.89 7.3 45.1 43 -4.5 23.9
22:05 1014 29.94 843 24.89 7.6 45.6 42 -4.5 23.9
22:10 1014 29.94 843 24.89 7.7 45.9 42 -4.2 24.4
22:15 1014 29.94 843 24.89 7.6 45.7 42 -4.4 24
22:20 1014 29.94 843 24.89 7.4 45.3 42 -4.5 23.8
22:25 1013 29.91 843 24.89 7.4 45.3 43 -4.4 24.1
22:30 1013 29.91 843 24.89 7.3 45.1 42 -4.6 23.7
22:35 1013 29.91 842 24.86 7.3 45.1 43 -4.6 23.8
22:40 1013 29.91 843 24.89 7.4 45.3 42 -4.8 23.3
22:45 1013 29.91 842 24.86 7.9 46.2 42 -4.2 24.5
22:50 1013 29.91 842 24.86 7.9 46.2 42 -4.3 24.3
22:55 1013 29.91 842 24.86 8.1 46.6 41 -4.4 24.1
23:00 1013 29.91 842 24.86 8.5 47.4 39 -4.5 23.8
23:05 1013 29.91 842 24.86 8.7 47.7 38 -4.9 23.1
23:10 1013 29.91 842 24.86 8.9 48 37 -4.9 23.2
23:15 1013 29.91 842 24.86 9 48.1 37 -5 23
23:20 1013 29.91 842 24.86 9 48.3 37 -4.8 23.3
23:25 1013 29.91 842 24.86 9 48.2 37 -4.9 23.1
23:30 1013 29.91 842 24.86 9.1 48.3 37 -5 23
23:35 1013 29.91 842 24.86 9.2 48.6 36 -5 23
23:40 1013 29.91 842 24.86 9 48.2 38 -4.4 24
23:45 1013 29.91 842 24.86 8.4 47.1 40 -4.3 24.2
23:50 1013 29.91 842 24.86 7.9 46.2 42 -4.2 24.5
23:55 1013 29.91 842 24.86 7.6 45.6 43 -4.1 24.7
24:00 1013 29.91 842 24.86 7.6 45.7 43 -4.3 24.3